Aeroporto :
LOGIN :

Iscrizione | Disclaimer

   EN    FR    IT 

 










Sommario :    VFR   VFR Marginale   IFR   IFR Intensivo   IFR Molto Intensivo
Visibilità : 
Base nubi : 
>= 8 km
>= 3000ft
5 / 8 km
1000 / 3000 ft
1500m / 5 km
500 / 1000 ft
800 / 1500m
200 / 500 ft
< 800m
< 200 ft
Simboli :   Temporali  Nebbia  Neve Forte  Precipitazioni Forti  Vento > 20 kt
SIGMETs :   Varie  Temporali  Ghiacco  Turbolenza  Onda orograficha  Ceneri Vulcaniche







- Altitudine del aeroporto : 291 ft
- Codice IATA : ORY
- Carte del aeroporto


LFPO - Paris-Orly

ULTIMO METAR :
  • 220837Z 04012KT 6000 NSC M00/M04 Q1019 NOSIG

METARs OBSOLETI :
  • 220800Z 03012KT 6000 NSC M01/M04 Q1019 NOSIG
  • 220730Z 03010KT 5000 BR NSC M01/M04 Q1019 TEMPO 3000 BR
  • 220700Z 03009KT 4000 BR NSC M02/M04 Q1019 TEMPO 3000 BR
  • 220630Z 03008KT 4000 BR NSC M02/M04 Q1019 TEMPO 3000 BR
  • 220600Z 03007KT 6000 NSC M01/M04 Q1018 NOSIG

TAF TAF LFPO
Valido dal 22 a 06 ore il 23 a 12 ore UTC


220500Z 2206/2312 02010KT 8000 NSC
PROB30
TEMPO 2206/2209 3000 BR SCT008
TEMPO 2211/2224 CAVOK
ATIS : +33 1 49 75 65 80
Nessun NOTAM noto per questo aeroporto.
2 SIGMETs conosciuti per la FIR Paris (LFFF) :
 
Turbolenza severa
LFFF SIGMET 2 VALID 220900/221100 LFPW
LFFF PARIS FIR/UIR SEV TURB FCST WI N4630 E00400 - N4630 E00300 - N4700 E00215 - N4815 E00230 - N4730 E00415 - N4630 E00400 FL160/260 MOV W 5KT NC=
Turbolenza severa
LFFF SIGMET 1 VALID 220600/220900 LFPW
LFFF PARIS FIR/UIR SEV TURB FCST WI N4815 E00515 - N4730 E00415 - N4630 E00445 - N4630 E00300 - N4700 E00215 - N4815 E00500 - N4815 E00515 FL170/250 MOV SW 25KT NC=



MetMap, La meteo Aeronautica in un colpo d'occhio ! - Copyright ORBIFLY Dicembre 2007 - Disclaimer

ORBIFLY MET'MAP TEAM :

Programmazione e sviluppo : Alexandra Zaïnal
Concezione e sviluppo : Baudouin d'Aumeries
Co-Programmazione e sviluppo : Marc-Olivier Méhu
Supporto tecnico e logistico : Manuel Goepfert
Aiuto per la traduzione : Arnaldo La Scala

Contatto : metmap@orbifly.com




FONTI E CREDITI :

   NOAA